createdAt,value
2018-12-14T00:02:06.825Z,25.68
2018-12-14T00:07:16.329Z,28.19
2018-12-14T00:12:25.497Z,25.18
2018-12-14T00:17:34.973Z,23.70
2018-12-14T00:22:44.035Z,24.11
2018-12-14T00:27:53.719Z,25.01
2018-12-14T00:33:02.858Z,23.43
2018-12-14T00:38:10.857Z,25.60
2018-12-14T00:43:19.990Z,22.97
2018-12-14T00:48:29.537Z,23.09
2018-12-14T00:53:37.306Z,23.27
2018-12-14T00:58:46.725Z,23.34
2018-12-14T01:03:55.899Z,22.49
2018-12-14T01:09:05.112Z,23.57
2018-12-14T01:14:14.237Z,22.78
2018-12-14T01:19:22.323Z,22.48
2018-12-14T01:24:31.600Z,22.10
2018-12-14T01:29:41.344Z,21.02
2018-12-14T01:34:50.556Z,20.73
2018-12-14T01:39:58.510Z,20.58
2018-12-14T01:45:06.254Z,22.56
2018-12-14T01:50:15.849Z,20.11
2018-12-14T01:55:25.046Z,21.45
2018-12-14T02:00:34.398Z,20.12
2018-12-14T02:05:43.576Z,21.78
2018-12-14T02:10:53.096Z,21.12
2018-12-14T02:16:02.261Z,23.02
2018-12-14T02:21:11.867Z,20.11
2018-12-14T02:26:19.556Z,21.27
2018-12-14T02:31:29.013Z,21.08
2018-12-14T02:36:38.270Z,20.80
2018-12-14T02:41:46.229Z,19.79
2018-12-14T02:46:55.355Z,20.16
2018-12-14T02:52:04.926Z,18.56
2018-12-14T02:57:14.084Z,18.89
2018-12-14T03:02:23.661Z,19.45
2018-12-14T03:07:32.828Z,18.11
2018-12-14T03:12:42.374Z,17.84
2018-12-14T03:17:50.105Z,19.05
2018-12-14T03:22:59.653Z,19.33
2018-12-14T03:28:09.010Z,18.71
2018-12-14T03:33:18.570Z,18.28
2018-12-14T03:38:26.244Z,17.58
2018-12-14T03:43:35.751Z,18.17
2018-12-14T03:48:44.949Z,18.49
2018-12-14T03:53:54.578Z,19.64
2018-12-14T03:59:03.694Z,18.32
2018-12-14T04:04:13.154Z,17.11
2018-12-14T04:09:22.359Z,16.73
2018-12-14T04:14:31.817Z,18.31
2018-12-14T04:19:41.008Z,16.91
2018-12-14T04:24:50.720Z,17.12
2018-12-14T04:29:59.897Z,15.82
2018-12-14T04:35:09.317Z,16.48
2018-12-14T04:40:18.642Z,16.18
2018-12-14T04:45:28.261Z,16.38
2018-12-14T04:50:37.398Z,15.96
2018-12-14T04:55:47.153Z,15.40
2018-12-14T05:00:56.372Z,15.78
2018-12-14T05:06:05.914Z,15.36
2018-12-14T05:11:15.176Z,16.13
2018-12-14T05:16:24.716Z,16.13
2018-12-14T05:21:33.894Z,15.01
2018-12-14T05:26:43.649Z,14.91
2018-12-14T05:31:52.917Z,14.49
2018-12-14T05:37:02.328Z,15.84
2018-12-14T05:42:11.634Z,16.25
2018-12-14T05:47:19.624Z,16.02
2018-12-14T05:52:28.794Z,17.34
2018-12-14T05:57:38.328Z,17.85
2018-12-14T06:02:47.504Z,22.41
2018-12-14T06:07:56.914Z,23.51
2018-12-14T06:13:09.049Z,23.68
2018-12-14T06:18:13.569Z,27.40
2018-12-14T06:23:22.720Z,28.28
2018-12-14T06:28:32.427Z,27.79
2018-12-14T06:33:41.574Z,25.87
2018-12-14T06:38:50.962Z,26.20
2018-12-14T06:44:00.104Z,25.12
2018-12-14T06:49:09.719Z,22.13
2018-12-14T06:54:18.941Z,28.14
2018-12-14T06:59:28.563Z,20.48
2018-12-14T07:04:37.829Z,21.84
2018-12-14T07:09:47.137Z,26.07
2018-12-14T07:14:56.421Z,78.33
2018-12-14T07:20:05.869Z,37.18
2018-12-14T07:25:15.272Z,28.77
2018-12-14T07:30:24.808Z,32.55
2018-12-14T07:35:33.912Z,34.19
2018-12-14T07:40:43.365Z,34.55
2018-12-14T07:45:52.547Z,39.36
2018-12-14T07:51:01.980Z,31.89
2018-12-14T07:56:11.258Z,36.10
2018-12-14T08:01:19.337Z,32.34
2018-12-14T08:06:28.505Z,29.45
2018-12-14T08:11:37.892Z,39.34
2018-12-14T08:16:47.018Z,38.31
2018-12-14T08:21:56.353Z,51.55
2018-12-14T08:27:05.751Z,51.12
2018-12-14T08:32:15.341Z,55.67
2018-12-14T08:37:23.064Z,56.24
2018-12-14T08:42:32.433Z,61.36
2018-12-14T08:47:41.618Z,54.54
2018-12-14T08:52:51.221Z,56.66
2018-12-14T08:58:00.291Z,52.31
2018-12-14T09:03:09.837Z,52.00
2018-12-14T09:08:18.972Z,58.27
2018-12-14T09:13:28.326Z,56.14
2018-12-14T09:18:37.466Z,52.56
2018-12-14T09:23:46.859Z,53.38
2018-12-14T09:28:56.221Z,53.52
2018-12-14T09:34:05.641Z,51.69
2018-12-14T09:39:14.814Z,48.50
2018-12-14T09:44:24.350Z,50.66
2018-12-14T09:49:33.463Z,42.04
2018-12-14T09:54:42.877Z,43.16
2018-12-14T09:59:52.116Z,42.56
2018-12-14T10:05:01.830Z,42.80
2018-12-14T10:10:11.032Z,43.98
2018-12-14T10:15:20.265Z,39.64
2018-12-14T10:20:29.401Z,38.10
2018-12-14T10:25:38.933Z,32.96
2018-12-14T10:30:48.264Z,39.09
2018-12-14T10:35:57.585Z,34.01
2018-12-14T10:41:06.721Z,37.17
2018-12-14T10:46:16.272Z,34.41
2018-12-14T10:51:25.454Z,31.06
2018-12-14T10:56:35.063Z,31.14
2018-12-14T11:01:44.283Z,30.25
2018-12-14T11:06:53.975Z,28.74
2018-12-14T11:12:03.089Z,32.68
2018-12-14T11:17:10.951Z,31.49
2018-12-14T11:22:20.076Z,32.18
2018-12-14T11:27:29.403Z,28.64
2018-12-14T11:32:38.863Z,32.97
2018-12-14T11:37:48.351Z,34.19
2018-12-14T11:42:57.600Z,27.79
2018-12-14T11:48:07.154Z,36.22
2018-12-14T11:53:16.413Z,43.94
2018-12-14T11:58:26.224Z,50.09
2018-12-14T12:03:33.932Z,45.02
2018-12-14T12:08:43.689Z,40.70
2018-12-14T12:13:52.840Z,42.58
2018-12-14T12:18:59.258Z,48.84
2018-12-14T12:24:08.531Z,54.69
2018-12-14T12:29:17.917Z,58.10
2018-12-14T12:34:27.242Z,55.45
2018-12-14T12:39:36.577Z,50.26
2018-12-14T12:44:45.706Z,47.86
2018-12-14T12:49:55.216Z,44.69
2018-12-14T12:55:04.395Z,24.48
2018-12-14T13:00:13.716Z,21.01
2018-12-14T13:05:22.840Z,17.39
2018-12-14T13:10:32.628Z,17.61
2018-12-14T13:15:41.794Z,17.03
2018-12-14T13:20:51.113Z,17.06
2018-12-14T13:26:00.220Z,16.76
2018-12-14T13:31:09.557Z,14.47
2018-12-14T13:36:17.428Z,14.01
2018-12-14T13:41:27.156Z,18.00
2018-12-14T13:46:36.306Z,19.31
2018-12-14T13:51:45.825Z,18.84
2018-12-14T13:56:54.986Z,19.60
2018-12-14T14:02:04.480Z,20.91
2018-12-14T14:07:13.688Z,23.54
2018-12-14T14:12:23.365Z,22.94
2018-12-14T14:17:32.562Z,23.46
2018-12-14T14:22:41.945Z,22.88
2018-12-14T14:27:51.172Z,18.54
2018-12-14T14:33:00.583Z,19.98
2018-12-14T14:38:10.079Z,16.29
2018-12-14T14:43:19.639Z,17.02
2018-12-14T14:48:28.776Z,16.97
2018-12-14T14:53:38.369Z,17.96
2018-12-14T14:58:47.520Z,17.55
2018-12-14T15:03:56.981Z,13.82
2018-12-14T15:09:06.281Z,18.24
2018-12-14T15:14:15.942Z,13.18
2018-12-14T15:19:25.210Z,14.35
2018-12-14T15:24:34.165Z,16.59
2018-12-14T15:29:41.303Z,20.43
2018-12-14T15:34:50.101Z,17.01
2018-12-14T15:39:58.665Z,43.51
2018-12-14T15:45:12.963Z,28.44
2018-12-14T15:50:15.732Z,35.02
2018-12-14T15:54:04.386Z,21.90
2018-12-14T15:59:03.151Z,23.05
2018-12-14T16:04:11.689Z,20.55
2018-12-14T16:09:20.510Z,23.80
2018-12-14T16:14:34.126Z,28.45
2018-12-14T16:19:36.002Z,24.79
2018-12-14T16:24:44.561Z,19.55
2018-12-14T16:29:53.469Z,17.48
2018-12-14T16:35:02.071Z,15.86
2018-12-14T16:40:09.354Z,17.17
2018-12-14T16:45:17.981Z,19.57
2018-12-14T16:50:26.815Z,17.08
2018-12-14T16:55:35.368Z,12.04
2018-12-14T17:00:44.196Z,15.24
2018-12-14T17:05:51.252Z,20.41
2018-12-14T17:11:01.183Z,14.62
2018-12-14T17:16:08.363Z,13.88
2018-12-14T17:21:17.684Z,13.83
2018-12-14T17:26:26.362Z,18.29
2018-12-14T17:31:35.497Z,14.58
2018-12-14T17:36:44.257Z,15.34
2018-12-14T17:41:54.237Z,15.73
2018-12-14T17:46:59.675Z,16.24
2018-12-14T17:52:08.345Z,27.42
2018-12-14T17:57:16.895Z,21.79
2018-12-14T18:02:25.700Z,50.36
2018-12-14T18:07:34.295Z,47.37
2018-12-14T18:12:43.261Z,63.26
2018-12-14T18:17:51.905Z,63.83
2018-12-14T18:23:02.381Z,58.29
2018-12-14T18:28:10.180Z,58.77
2018-12-14T18:33:19.051Z,53.86
2018-12-14T18:38:27.753Z,46.65
2018-12-14T18:43:36.839Z,53.39
2018-12-14T18:48:45.394Z,50.14
2018-12-14T18:53:54.343Z,48.14
2018-12-14T18:59:02.914Z,47.54
2018-12-14T19:04:11.689Z,17.61
2018-12-14T19:09:18.852Z,17.16
2018-12-14T19:14:27.702Z,14.88
2018-12-14T19:19:37.262Z,15.02
2018-12-14T19:24:46.323Z,12.41
2018-12-14T19:29:54.860Z,31.75
2018-12-14T19:35:03.753Z,18.38
2018-12-14T19:40:12.510Z,14.33
2018-12-14T19:45:19.761Z,13.26
2018-12-14T19:50:28.380Z,14.92
2018-12-14T19:55:37.217Z,16.71
2018-12-14T20:00:45.796Z,17.90
2018-12-14T20:05:54.805Z,15.75
2018-12-14T20:11:03.481Z,17.65
2018-12-14T20:16:12.881Z,15.45
2018-12-14T20:21:20.361Z,13.68
2018-12-14T20:26:29.418Z,12.79
2018-12-14T20:31:37.985Z,13.39
2018-12-14T20:36:46.684Z,15.79
2018-12-14T20:41:55.466Z,17.12
2018-12-14T20:47:04.273Z,17.33
2018-12-14T20:52:12.836Z,18.47
2018-12-14T20:57:21.673Z,20.31
2018-12-14T21:02:30.237Z,16.83
2018-12-14T21:07:39.036Z,16.34
2018-12-14T21:12:47.607Z,13.68
2018-12-14T21:17:56.402Z,15.63
2018-12-14T21:23:04.987Z,11.77
2018-12-14T21:28:14.277Z,13.68
2018-12-14T21:33:22.935Z,11.36
2018-12-14T21:38:31.977Z,13.83
2018-12-14T21:43:40.673Z,11.27
2018-12-14T21:48:49.439Z,13.22
2018-12-14T21:53:57.996Z,12.45
2018-12-14T21:59:07.065Z,9.01
2018-12-14T22:04:14.211Z,12.28
2018-12-14T22:09:23.048Z,10.06
2018-12-14T22:14:34.971Z,10.82
2018-12-14T22:19:33.792Z,11.04
2018-12-14T22:24:42.459Z,11.08
2018-12-14T22:29:51.462Z,9.29
2018-12-14T22:35:00.052Z,10.06
2018-12-14T22:40:09.149Z,13.22
2018-12-14T22:45:16.427Z,8.47
2018-12-14T22:50:25.062Z,10.19
2018-12-14T22:55:32.120Z,8.35
2018-12-14T23:00:40.860Z,9.62
2018-12-14T23:05:49.477Z,10.07
2018-12-14T23:10:58.130Z,11.48
2018-12-14T23:16:06.703Z,9.21
2018-12-14T23:21:15.405Z,9.44
2018-12-14T23:26:24.033Z,9.38
2018-12-14T23:31:33.001Z,8.49
2018-12-14T23:36:41.572Z,8.33
2018-12-14T23:41:50.315Z,8.78
2018-12-14T23:46:59.135Z,8.16
2018-12-14T23:52:08.010Z,7.34
2018-12-14T23:57:16.560Z,7.17
